createdAt,value
2022-12-03T00:01:01.177Z,13.90
2022-12-03T00:03:28.087Z,12.93
2022-12-03T00:05:54.949Z,12.05
2022-12-03T00:08:21.424Z,13.55
2022-12-03T00:10:48.696Z,12.80
2022-12-03T00:13:15.275Z,13.15
2022-12-03T00:15:41.814Z,13.25
2022-12-03T00:18:08.460Z,12.73
2022-12-03T00:20:35.121Z,13.43
2022-12-03T00:23:01.610Z,13.25
2022-12-03T00:25:28.323Z,13.00
2022-12-03T00:27:54.877Z,13.45
2022-12-03T00:30:21.391Z,13.85
2022-12-03T00:32:48.056Z,12.95
2022-12-03T00:35:14.561Z,12.60
2022-12-03T00:37:41.052Z,12.35
2022-12-03T00:40:08.236Z,13.35
2022-12-03T00:42:34.721Z,13.63
2022-12-03T00:45:01.579Z,13.35
2022-12-03T00:47:28.402Z,13.70
2022-12-03T00:49:57.693Z,13.50
2022-12-03T00:52:24.190Z,13.60
2022-12-03T00:54:50.910Z,12.48
2022-12-03T00:57:17.619Z,13.23
2022-12-03T00:59:44.116Z,14.32
2022-12-03T01:02:10.728Z,13.30
2022-12-03T01:04:37.347Z,13.05
2022-12-03T01:07:03.896Z,13.27
2022-12-03T01:09:30.421Z,12.48
2022-12-03T01:11:57.083Z,14.13
2022-12-03T01:14:23.629Z,12.60
2022-12-03T01:16:50.154Z,13.02
2022-12-03T01:19:17.128Z,13.90
2022-12-03T01:21:49.505Z,14.68
2022-12-03T01:24:16.898Z,14.07
2022-12-03T01:26:43.559Z,13.75
2022-12-03T01:29:10.127Z,13.32
2022-12-03T01:31:37.070Z,13.00
2022-12-03T01:34:03.896Z,12.90
2022-12-03T01:36:30.381Z,13.30
2022-12-03T01:38:56.892Z,12.23
2022-12-03T01:41:24.970Z,12.55
2022-12-03T01:43:52.473Z,13.38
2022-12-03T01:46:22.288Z,13.15
2022-12-03T01:48:51.180Z,12.20
2022-12-03T01:51:18.056Z,13.48
2022-12-03T01:53:44.623Z,13.30
2022-12-03T01:56:14.273Z,13.15
2022-12-03T01:58:41.203Z,12.95
2022-12-03T02:01:13.470Z,13.80
2022-12-03T02:03:40.127Z,13.38
2022-12-03T02:06:13.388Z,14.30
2022-12-03T02:08:39.853Z,14.63
2022-12-03T02:11:18.611Z,13.82
2022-12-03T02:13:45.464Z,15.45
2022-12-03T02:16:12.104Z,14.52
2022-12-03T02:18:38.647Z,13.60
2022-12-03T02:21:13.906Z,14.30
2022-12-03T02:24:03.470Z,14.30
2022-12-03T02:26:29.989Z,12.38
2022-12-03T02:28:56.848Z,15.27
2022-12-03T02:31:23.876Z,14.20
2022-12-03T02:33:50.783Z,14.40
2022-12-03T02:36:17.326Z,15.63
2022-12-03T02:38:44.785Z,15.07
2022-12-03T02:41:13.001Z,14.68
2022-12-03T02:43:39.573Z,15.60
2022-12-03T02:46:07.843Z,16.33
2022-12-03T02:48:38.852Z,15.13
2022-12-03T02:51:09.580Z,15.73
2022-12-03T02:53:39.054Z,16.40
2022-12-03T02:56:08.435Z,15.65
2022-12-03T02:58:35.173Z,15.85
2022-12-03T03:01:02.569Z,16.20
2022-12-03T03:03:29.732Z,16.88
2022-12-03T03:05:56.888Z,14.95
2022-12-03T03:08:24.653Z,16.67
2022-12-03T03:10:51.385Z,16.80
2022-12-03T03:13:20.809Z,17.35
2022-12-03T03:15:47.717Z,17.08
2022-12-03T03:18:16.920Z,17.40
2022-12-03T03:20:44.133Z,17.13
2022-12-03T03:23:19.406Z,16.83
2022-12-03T03:25:49.906Z,16.80
2022-12-03T03:30:43.909Z,16.58
2022-12-03T03:33:11.370Z,15.65
2022-12-03T03:35:38.317Z,16.33
2022-12-03T03:38:05.876Z,16.55
2022-12-03T03:40:32.570Z,16.27
2022-12-03T03:43:00.248Z,16.85
2022-12-03T03:45:29.366Z,16.33
2022-12-03T03:47:57.767Z,16.75
2022-12-03T03:50:24.770Z,17.10
2022-12-03T03:52:51.549Z,16.90
2022-12-03T03:55:18.232Z,16.40
2022-12-03T03:57:45.021Z,15.93
2022-12-03T04:00:12.089Z,17.02
2022-12-03T04:02:38.679Z,16.70
2022-12-03T04:05:05.880Z,16.95
2022-12-03T04:07:32.468Z,16.17
2022-12-03T04:09:58.986Z,16.27
2022-12-03T04:12:37.390Z,17.10
2022-12-03T04:15:24.802Z,16.38
2022-12-03T04:18:06.066Z,15.30
2022-12-03T04:20:32.701Z,16.25
2022-12-03T04:22:59.192Z,15.88
2022-12-03T04:25:25.704Z,15.15
2022-12-03T04:27:52.181Z,14.60
2022-12-03T04:30:19.932Z,15.23
2022-12-03T04:32:46.516Z,15.40
2022-12-03T04:35:13.055Z,15.75
2022-12-03T04:37:39.680Z,14.38
2022-12-03T04:40:06.896Z,14.57
2022-12-03T04:42:33.346Z,14.55
2022-12-03T04:44:59.837Z,13.80
2022-12-03T04:47:26.330Z,14.60
2022-12-03T04:49:52.897Z,14.55
2022-12-03T04:52:20.549Z,15.20
2022-12-03T04:54:47.205Z,14.70
2022-12-03T04:57:13.710Z,14.20
2022-12-03T04:59:40.443Z,14.73
2022-12-03T05:02:07.437Z,14.23
2022-12-03T05:04:34.203Z,16.25
2022-12-03T05:07:01.941Z,14.93
2022-12-03T05:09:28.508Z,15.30
2022-12-03T05:11:55.041Z,14.25
2022-12-03T05:14:21.605Z,14.63
2022-12-03T05:16:48.185Z,14.13
2022-12-03T05:19:14.721Z,13.00
2022-12-03T05:21:41.208Z,13.63
2022-12-03T05:24:07.749Z,13.15
2022-12-03T05:26:34.303Z,12.77
2022-12-03T05:29:00.781Z,12.40
2022-12-03T05:31:27.349Z,12.27
2022-12-03T05:33:53.934Z,12.80
2022-12-03T05:36:20.453Z,13.18
2022-12-03T05:38:47.037Z,13.27
2022-12-03T05:41:14.625Z,12.15
2022-12-03T05:43:41.205Z,12.43
2022-12-03T05:46:07.911Z,13.30
2022-12-03T05:48:34.439Z,12.20
2022-12-03T05:51:00.902Z,11.90
2022-12-03T05:53:27.387Z,12.98
2022-12-03T05:55:53.858Z,12.45
2022-12-03T05:58:20.373Z,12.18
2022-12-03T06:00:46.869Z,12.68
2022-12-03T06:03:13.511Z,11.38
2022-12-03T06:05:40.161Z,11.25
2022-12-03T06:08:06.976Z,11.40
2022-12-03T06:10:33.599Z,11.32
2022-12-03T06:13:00.100Z,11.57
2022-12-03T06:15:26.914Z,11.00
2022-12-03T06:17:53.430Z,10.63
2022-12-03T06:20:20.872Z,10.60
2022-12-03T06:22:47.890Z,12.32
2022-12-03T06:25:15.556Z,12.88
2022-12-03T06:27:42.264Z,13.13
2022-12-03T06:30:11.033Z,12.48
2022-12-03T06:32:37.669Z,12.35
2022-12-03T06:35:04.615Z,12.85
2022-12-03T06:37:31.092Z,12.50
2022-12-03T06:39:57.590Z,12.05
2022-12-03T06:42:24.076Z,11.27
2022-12-03T06:44:51.779Z,11.05
2022-12-03T06:47:18.498Z,10.80
2022-12-03T06:49:45.058Z,12.40
2022-12-03T06:52:11.544Z,11.10
2022-12-03T06:54:38.796Z,12.30
2022-12-03T06:57:05.537Z,13.27
2022-12-03T06:59:32.055Z,13.20
2022-12-03T07:01:59.927Z,11.32
2022-12-03T07:04:26.987Z,10.73
2022-12-03T07:06:53.589Z,11.90
2022-12-03T07:09:20.320Z,10.82
2022-12-03T07:11:47.001Z,11.85
2022-12-03T07:14:13.523Z,10.20
2022-12-03T07:16:40.583Z,11.57
2022-12-03T07:19:07.349Z,10.43
2022-12-03T07:21:34.254Z,10.30
2022-12-03T07:24:01.166Z,10.88
2022-12-03T07:26:27.745Z,12.07
2022-12-03T07:28:54.222Z,10.65
2022-12-03T07:31:21.284Z,11.25
2022-12-03T07:33:47.808Z,10.85
2022-12-03T07:36:14.732Z,10.90
2022-12-03T07:38:42.359Z,9.93
2022-12-03T07:41:08.867Z,10.55
2022-12-03T07:43:35.828Z,10.65
2022-12-03T07:46:02.452Z,11.07
2022-12-03T07:48:28.977Z,10.48
2022-12-03T07:50:55.468Z,10.48
2022-12-03T07:53:22.535Z,10.93
2022-12-03T07:55:49.558Z,11.07
2022-12-03T07:58:16.146Z,10.25
2022-12-03T08:00:42.769Z,10.90
2022-12-03T08:03:09.319Z,10.68
2022-12-03T08:05:37.584Z,11.38
2022-12-03T08:08:04.217Z,11.15
2022-12-03T08:10:30.887Z,10.77
2022-12-03T08:12:59.294Z,10.30
2022-12-03T08:15:30.128Z,10.57
2022-12-03T08:18:01.066Z,11.13
2022-12-03T08:20:31.253Z,11.20
2022-12-03T08:22:57.754Z,11.32
2022-12-03T08:25:28.579Z,11.98
2022-12-03T08:28:00.728Z,10.88
2022-12-03T08:30:29.218Z,12.52
2022-12-03T08:32:58.109Z,12.13
2022-12-03T08:35:28.097Z,12.10
2022-12-03T08:37:59.935Z,13.98
2022-12-03T08:40:34.045Z,12.35
2022-12-03T08:43:00.765Z,14.32
2022-12-03T08:45:30.832Z,15.18
2022-12-03T08:48:12.104Z,13.35
2022-12-03T08:50:40.555Z,13.13
2022-12-03T08:53:33.203Z,12.85
2022-12-03T08:56:20.464Z,13.35
2022-12-03T08:58:48.941Z,13.35
2022-12-03T09:01:27.494Z,13.23
2022-12-03T09:03:58.004Z,13.18
2022-12-03T09:08:51.711Z,13.10
2022-12-03T09:11:18.361Z,12.57
2022-12-03T09:13:44.950Z,13.65
2022-12-03T09:16:11.505Z,13.65
2022-12-03T09:18:38.089Z,13.18
2022-12-03T09:21:04.793Z,14.00
2022-12-03T09:23:31.316Z,14.45
2022-12-03T09:25:57.885Z,13.85
2022-12-03T09:28:24.569Z,13.95
2022-12-03T09:30:51.057Z,14.10
2022-12-03T09:33:17.579Z,13.48
2022-12-03T09:35:44.061Z,14.15
2022-12-03T09:38:10.904Z,13.80
2022-12-03T09:40:37.929Z,14.32
2022-12-03T09:43:05.004Z,15.32
2022-12-03T09:45:32.255Z,14.68
2022-12-03T09:48:00.777Z,14.93
2022-12-03T09:50:27.648Z,14.93
2022-12-03T09:52:57.317Z,14.85
2022-12-03T09:55:26.433Z,14.30
2022-12-03T09:57:54.335Z,15.20
2022-12-03T10:00:25.959Z,14.68
2022-12-03T10:02:55.374Z,16.27
2022-12-03T10:05:25.127Z,14.82
2022-12-03T10:07:52.399Z,16.33
2022-12-03T10:10:23.757Z,14.98
2022-12-03T10:12:54.806Z,15.43
2022-12-03T10:15:23.453Z,14.43
2022-12-03T10:17:52.649Z,14.27
2022-12-03T10:20:20.549Z,14.20
2022-12-03T10:22:47.212Z,14.55
2022-12-03T10:25:19.676Z,14.20
2022-12-03T10:28:00.475Z,12.70
2022-12-03T10:30:28.159Z,12.98
2022-12-03T10:32:56.587Z,13.15
2022-12-03T10:35:44.779Z,13.20
2022-12-03T10:38:17.618Z,12.93
2022-12-03T10:40:44.143Z,12.77
2022-12-03T10:43:18.225Z,12.40
2022-12-03T10:46:05.073Z,12.65
2022-12-03T10:48:31.742Z,13.02
2022-12-03T10:51:01.318Z,13.55
2022-12-03T10:53:33.203Z,13.15
2022-12-03T10:56:01.836Z,13.02
2022-12-03T10:58:35.952Z,13.80
2022-12-03T11:01:05.767Z,15.25
2022-12-03T11:03:36.008Z,13.10
2022-12-03T11:06:03.328Z,13.55
2022-12-03T11:08:35.440Z,14.15
2022-12-03T11:11:07.851Z,13.88
2022-12-03T11:13:34.283Z,13.70
2022-12-03T11:16:02.350Z,14.32
2022-12-03T11:18:38.160Z,14.52
2022-12-03T11:21:13.194Z,13.48
2022-12-03T11:23:46.076Z,13.57
2022-12-03T11:26:28.535Z,13.43
2022-12-03T11:28:56.596Z,13.40
2022-12-03T11:31:36.823Z,13.60
2022-12-03T11:34:18.343Z,13.35
2022-12-03T11:37:09.668Z,13.70
2022-12-03T11:39:51.494Z,13.13
2022-12-03T11:42:21.306Z,13.23
2022-12-03T11:45:10.469Z,13.68
2022-12-03T11:47:37.954Z,13.85
2022-12-03T11:50:40.302Z,15.38
2022-12-03T11:53:22.427Z,12.98
2022-12-03T11:56:04.856Z,14.30
2022-12-03T11:58:32.221Z,14.45
2022-12-03T12:01:00.811Z,14.80
2022-12-03T12:03:34.989Z,15.48
2022-12-03T12:06:16.368Z,14.32
2022-12-03T12:08:54.396Z,13.90
2022-12-03T12:11:28.256Z,14.50
2022-12-03T12:14:00.205Z,12.98
2022-12-03T12:16:53.254Z,14.20
2022-12-03T12:19:42.256Z,13.85
2022-12-03T12:22:13.620Z,13.52
2022-12-03T12:24:40.117Z,15.07
2022-12-03T12:27:09.223Z,13.45
2022-12-03T12:29:38.531Z,14.80
2022-12-03T12:32:12.913Z,14.70
2022-12-03T12:34:41.520Z,14.48
2022-12-03T12:37:22.382Z,15.43
2022-12-03T12:39:51.031Z,15.60
2022-12-03T12:42:37.014Z,15.88
2022-12-03T12:45:14.686Z,15.27
2022-12-03T12:47:48.748Z,14.88
2022-12-03T12:50:17.042Z,14.60
2022-12-03T12:52:55.206Z,14.60
2022-12-03T12:55:22.773Z,15.10
2022-12-03T12:57:50.390Z,15.57
2022-12-03T13:00:23.138Z,14.68
2022-12-03T13:02:59.026Z,15.70
2022-12-03T13:05:25.914Z,15.85
2022-12-03T13:07:52.970Z,14.90
2022-12-03T13:10:38.458Z,14.73
2022-12-03T13:13:31.708Z,15.27
2022-12-03T13:16:18.564Z,14.65
2022-12-03T13:18:47.546Z,15.85
2022-12-03T13:21:38.705Z,14.50
2022-12-03T13:24:29.385Z,16.52
2022-12-03T13:26:56.816Z,14.90
2022-12-03T13:29:24.049Z,16.30
2022-12-03T13:31:59.703Z,16.00
2022-12-03T13:34:31.870Z,17.35
2022-12-03T13:36:59.983Z,18.55
2022-12-03T13:39:32.298Z,17.63
2022-12-03T13:42:08.496Z,18.52
2022-12-03T13:44:41.578Z,18.55
2022-12-03T13:47:18.917Z,19.85
2022-12-03T13:49:50.809Z,19.70
2022-12-03T13:52:20.938Z,19.90
2022-12-03T13:54:52.610Z,19.65
2022-12-03T13:57:19.469Z,19.35
2022-12-03T13:59:46.012Z,20.10
2022-12-03T14:02:12.547Z,19.38
2022-12-03T14:04:40.347Z,18.67
2022-12-03T14:07:07.228Z,22.00
2022-12-03T14:09:33.759Z,21.40
2022-12-03T14:12:00.260Z,19.77
2022-12-03T14:14:26.782Z,20.15
2022-12-03T14:16:59.529Z,21.45
2022-12-03T14:19:27.349Z,20.95
2022-12-03T14:21:57.185Z,20.10
2022-12-03T14:24:23.987Z,19.40
2022-12-03T14:26:50.537Z,21.88
2022-12-03T14:29:17.138Z,19.90
2022-12-03T14:31:44.086Z,20.35
2022-12-03T14:34:11.828Z,21.23
2022-12-03T14:36:38.386Z,21.38
2022-12-03T14:39:05.370Z,21.45
2022-12-03T14:41:48.226Z,22.52
2022-12-03T14:44:14.755Z,21.90
2022-12-03T14:46:41.404Z,21.60
2022-12-03T14:49:08.196Z,22.13
2022-12-03T14:51:34.701Z,24.25
2022-12-03T14:54:01.360Z,22.88
2022-12-03T14:56:27.857Z,21.67
2022-12-03T14:58:54.386Z,21.83
2022-12-03T15:01:21.288Z,21.17
2022-12-03T15:03:48.402Z,21.65
2022-12-03T15:06:14.962Z,22.10
2022-12-03T15:08:41.648Z,22.38
2022-12-03T15:11:08.433Z,22.63
2022-12-03T15:13:34.994Z,22.40
2022-12-03T15:16:01.812Z,23.00
2022-12-03T15:18:28.552Z,21.80
2022-12-03T15:20:55.071Z,21.60
2022-12-03T15:23:21.589Z,20.98
2022-12-03T15:25:48.157Z,21.55
2022-12-03T15:28:14.665Z,21.63
2022-12-03T15:30:41.203Z,23.60
2022-12-03T15:33:07.795Z,24.70
2022-12-03T15:35:34.600Z,24.33
2022-12-03T15:38:01.089Z,22.60
2022-12-03T15:40:27.601Z,24.13
2022-12-03T15:42:54.173Z,24.27
2022-12-03T15:45:21.425Z,23.33
2022-12-03T15:47:48.071Z,23.40
2022-12-03T15:50:17.947Z,23.20
2022-12-03T15:52:44.508Z,26.58
2022-12-03T15:55:11.635Z,24.35
2022-12-03T15:57:38.176Z,24.48
2022-12-03T16:00:05.957Z,25.08
2022-12-03T16:02:32.731Z,25.77
2022-12-03T16:05:04.571Z,24.60
2022-12-03T16:07:31.424Z,23.92
2022-12-03T16:09:58.098Z,32.22
2022-12-03T16:12:24.887Z,26.05
2022-12-03T16:14:51.535Z,27.48
2022-12-03T16:17:18.022Z,26.63
2022-12-03T16:19:44.641Z,24.50
2022-12-03T16:22:11.381Z,21.85
2022-12-03T16:24:41.309Z,22.83
2022-12-03T16:27:08.136Z,22.73
2022-12-03T16:29:34.869Z,22.70
2022-12-03T16:32:01.996Z,22.38
2022-12-03T16:34:28.534Z,23.35
2022-12-03T16:36:55.127Z,22.35
2022-12-03T16:39:21.640Z,22.55
2022-12-03T16:41:48.280Z,24.30
2022-12-03T16:44:14.799Z,23.52
2022-12-03T16:46:41.392Z,24.25
2022-12-03T16:49:08.246Z,22.70
2022-12-03T16:51:34.713Z,23.40
2022-12-03T16:54:01.182Z,24.45
2022-12-03T16:56:30.515Z,23.55
2022-12-03T16:58:57.128Z,24.02
2022-12-03T17:01:23.795Z,23.98
2022-12-03T17:03:51.096Z,24.20
2022-12-03T17:06:17.684Z,22.95
2022-12-03T17:08:49.427Z,23.35
2022-12-03T17:11:16.978Z,22.92
2022-12-03T17:13:43.827Z,22.85
2022-12-03T17:16:10.583Z,22.92
2022-12-03T17:18:37.302Z,24.23
2022-12-03T17:21:04.125Z,23.15
2022-12-03T17:23:31.812Z,22.50
2022-12-03T17:25:58.455Z,23.45
2022-12-03T17:28:25.008Z,23.58
2022-12-03T17:30:54.091Z,22.60
2022-12-03T17:33:20.725Z,25.52
2022-12-03T17:35:47.256Z,31.63
2022-12-03T17:38:13.760Z,26.30
2022-12-03T17:40:40.406Z,30.42
2022-12-03T17:43:28.236Z,23.52
2022-12-03T17:45:55.279Z,25.02
2022-12-03T17:48:21.840Z,30.33
2022-12-03T17:50:48.353Z,35.10
2022-12-03T17:53:14.861Z,27.80
2022-12-03T17:55:45.075Z,29.10
2022-12-03T18:00:38.313Z,26.33
2022-12-03T18:03:04.800Z,24.25
2022-12-03T18:05:31.742Z,33.80
2022-12-03T18:07:58.418Z,26.83
2022-12-03T18:10:25.017Z,25.73
2022-12-03T18:12:51.545Z,28.25
2022-12-03T18:15:18.068Z,25.48
2022-12-03T18:17:44.611Z,23.83
2022-12-03T18:20:11.153Z,24.80
2022-12-03T18:22:37.782Z,26.27
2022-12-03T18:25:05.014Z,24.45
2022-12-03T18:27:31.564Z,25.85
2022-12-03T18:30:00.637Z,24.45
2022-12-03T18:32:29.375Z,24.30
2022-12-03T18:34:57.393Z,23.10
2022-12-03T18:37:27.230Z,29.58
2022-12-03T18:39:54.387Z,25.00
2022-12-03T18:42:22.584Z,22.83
2022-12-03T18:44:50.331Z,23.63
2022-12-03T18:47:19.291Z,25.23
2022-12-03T18:49:45.859Z,26.95
2022-12-03T18:52:13.777Z,23.85
2022-12-03T18:54:40.338Z,23.83
2022-12-03T18:57:06.896Z,23.70
2022-12-03T18:59:33.450Z,25.13
2022-12-03T19:02:00.040Z,24.25
2022-12-03T19:04:26.626Z,25.40
2022-12-03T19:06:53.442Z,24.02
2022-12-03T19:09:20.035Z,24.45
2022-12-03T19:11:46.655Z,23.13
2022-12-03T19:14:13.215Z,23.65
2022-12-03T19:16:40.754Z,24.25
2022-12-03T19:19:10.347Z,23.50
2022-12-03T19:21:39.266Z,22.33
2022-12-03T19:26:53.149Z,22.13
2022-12-03T19:29:19.752Z,23.65
2022-12-03T19:31:49.294Z,24.17
2022-12-03T19:34:15.910Z,22.98
2022-12-03T19:36:43.063Z,22.58
2022-12-03T19:39:09.742Z,22.27
2022-12-03T19:41:36.293Z,23.45
2022-12-03T19:44:07.753Z,21.75
2022-12-03T19:46:37.185Z,23.70
2022-12-03T19:49:03.729Z,25.05
2022-12-03T19:51:35.073Z,24.92
2022-12-03T19:54:06.133Z,24.90
2022-12-03T19:58:59.277Z,23.13
2022-12-03T20:01:29.739Z,22.80
2022-12-03T20:06:26.498Z,24.50
2022-12-03T20:08:57.981Z,23.55
2022-12-03T20:11:26.775Z,22.45
2022-12-03T20:13:55.881Z,24.75
2022-12-03T20:16:23.213Z,27.10
2022-12-03T20:18:50.218Z,32.92
2022-12-03T20:21:18.026Z,31.08
2022-12-03T20:23:45.151Z,29.90
2022-12-03T20:26:15.963Z,26.20
2022-12-03T20:28:42.754Z,29.50
2022-12-03T20:31:15.213Z,28.15
2022-12-03T20:33:48.235Z,24.20
2022-12-03T20:36:16.563Z,26.77
2022-12-03T20:38:49.486Z,24.83
2022-12-03T20:41:18.112Z,26.08
2022-12-03T20:43:45.427Z,24.60
2022-12-03T20:46:18.013Z,24.85
2022-12-03T20:48:45.391Z,25.33
2022-12-03T20:51:14.645Z,26.02
2022-12-03T20:53:41.845Z,26.17
2022-12-03T20:56:08.993Z,24.45
2022-12-03T20:58:36.324Z,37.33
2022-12-03T21:01:16.128Z,24.17
2022-12-03T21:03:43.652Z,27.08
2022-12-03T21:06:10.722Z,27.15
2022-12-03T21:08:42.381Z,24.80
2022-12-03T21:11:10.434Z,25.95
2022-12-03T21:13:36.992Z,29.98
2022-12-03T21:16:08.105Z,25.67
2022-12-03T21:18:35.031Z,23.85
2022-12-03T21:21:02.439Z,22.67
2022-12-03T21:23:29.890Z,24.70
2022-12-03T21:26:08.260Z,22.10
2022-12-03T21:28:34.783Z,25.27
2022-12-03T21:31:06.042Z,22.08
2022-12-03T21:33:33.159Z,22.00
2022-12-03T21:36:00.238Z,22.88
2022-12-03T21:38:27.696Z,23.13
2022-12-03T21:40:54.683Z,22.92
2022-12-03T21:43:24.796Z,23.15
2022-12-03T21:45:52.084Z,23.63
2022-12-03T21:48:19.332Z,26.60
2022-12-03T21:50:46.599Z,22.17
2022-12-03T21:53:15.702Z,22.08
2022-12-03T21:55:42.406Z,22.92
2022-12-03T21:58:08.904Z,22.05
2022-12-03T22:00:36.237Z,23.55
2022-12-03T22:03:02.814Z,22.67
2022-12-03T22:05:29.395Z,22.27
2022-12-03T22:07:56.350Z,23.08
2022-12-03T22:10:22.951Z,22.67
2022-12-03T22:12:49.685Z,22.90
2022-12-03T22:15:19.201Z,30.65
2022-12-03T22:17:46.762Z,22.63
2022-12-03T22:20:13.780Z,24.92
2022-12-03T22:22:40.326Z,23.27
2022-12-03T22:25:07.212Z,22.33
2022-12-03T22:27:33.816Z,23.40
2022-12-03T22:30:00.297Z,22.00
2022-12-03T22:32:26.936Z,23.52
2022-12-03T22:34:53.438Z,22.42
2022-12-03T22:37:20.098Z,21.83
2022-12-03T22:39:46.619Z,22.25
2022-12-03T22:42:15.351Z,21.88
2022-12-03T22:44:41.851Z,23.00
2022-12-03T22:47:08.508Z,22.20
2022-12-03T22:49:35.149Z,22.42
2022-12-03T22:52:02.835Z,22.42
2022-12-03T22:54:32.332Z,22.40
2022-12-03T22:56:58.793Z,21.25
2022-12-03T22:59:25.526Z,22.17
2022-12-03T23:01:52.037Z,21.50
2022-12-03T23:04:18.788Z,22.95
2022-12-03T23:06:45.501Z,22.55
2022-12-03T23:09:12.327Z,24.83
2022-12-03T23:11:38.948Z,22.48
2022-12-03T23:14:05.492Z,21.15
2022-12-03T23:16:32.750Z,20.48
2022-12-03T23:19:00.185Z,20.10
2022-12-03T23:21:30.208Z,20.70
2022-12-03T23:26:27.195Z,19.98
2022-12-03T23:28:53.811Z,18.17
2022-12-03T23:31:29.004Z,20.25
2022-12-03T23:33:56.659Z,19.75
2022-12-03T23:36:25.439Z,18.25
2022-12-03T23:38:51.987Z,19.95
2022-12-03T23:41:20.373Z,21.05
2022-12-03T23:43:47.227Z,19.58
2022-12-03T23:46:16.191Z,19.83
2022-12-03T23:48:43.620Z,19.92
2022-12-03T23:51:12.589Z,19.50
2022-12-03T23:53:39.990Z,20.48
2022-12-03T23:56:14.626Z,20.67
2022-12-03T23:58:41.191Z,21.00
